Time;durP1;ratioP1;P1;durP2;ratioP2;P2;SDS_P1;SDS_P2;PMS_P1;PMS_P2;Temp;Humidity;BMP_temperature;BMP_pressure;BME280_temperature;BME280_humidity;BME280_pressure;Samples;Min_cycle;Max_cycle;Signal;HPM_P1;HPM_P2
2021/01/20 00:00:25;;;;;;;10.80;6.47;;;-1.60;99.90;;;;;;5010482;28;20414;-60
2021/01/20 00:02:51;;;;;;;9.87;6.00;;;-1.70;99.90;;;;;;4992187;28;20437;-60
2021/01/20 00:05:19;;;;;;;11.33;6.77;;;-1.70;99.90;;;;;;5008479;28;20979;-61
2021/01/20 00:07:45;;;;;;;14.27;7.47;;;-1.80;99.90;;;;;;5010495;28;20209;-60
2021/01/20 00:10:11;;;;;;;11.17;7.10;;;-1.80;99.90;;;;;;5010201;28;20431;-60
2021/01/20 00:12:37;;;;;;;18.87;9.20;;;-1.90;99.90;;;;;;5001711;28;20235;-60
2021/01/20 00:15:05;;;;;;;21.07;9.07;;;-2.00;99.90;;;;;;5004045;28;20954;-60
2021/01/20 00:17:30;;;;;;;27.40;12.53;;;-2.00;99.90;;;;;;5010342;28;20459;-61
2021/01/20 00:19:56;;;;;;;20.70;10.93;;;-2.00;99.90;;;;;;5006082;28;20441;-60
2021/01/20 00:22:22;;;;;;;30.80;12.17;;;-2.00;99.90;;;;;;4990315;28;20194;-60
2021/01/20 00:24:47;;;;;;;24.67;12.20;;;-2.00;99.90;;;;;;4995561;28;20177;-60
2021/01/20 00:27:13;;;;;;;18.13;11.60;;;-2.10;99.90;;;;;;4991713;28;20714;-60
2021/01/20 00:29:39;;;;;;;21.93;11.33;;;-2.10;99.90;;;;;;5009608;28;20217;-60
2021/01/20 00:32:05;;;;;;;25.20;11.23;;;-2.20;99.90;;;;;;5010299;28;20443;-59
2021/01/20 00:34:30;;;;;;;21.07;11.40;;;-2.20;99.90;;;;;;5010430;28;20388;-60
2021/01/20 00:36:56;;;;;;;17.97;10.53;;;-2.20;99.90;;;;;;5008649;28;20586;-60
2021/01/20 00:39:21;;;;;;;28.83;12.10;;;-2.20;99.90;;;;;;5007319;28;20174;-60
2021/01/20 00:41:47;;;;;;;24.93;12.63;;;-2.30;99.90;;;;;;5007465;28;20166;-61
2021/01/20 00:44:14;;;;;;;26.07;12.03;;;-2.30;99.90;;;;;;4995060;28;20687;-61
2021/01/20 00:46:40;;;;;;;25.63;12.83;;;-2.40;99.90;;;;;;5010285;28;20516;-60
2021/01/20 00:49:05;;;;;;;22.00;11.70;;;-2.50;99.60;;;;;;5009930;28;20934;-62
2021/01/20 00:51:31;;;;;;;23.97;11.80;;;-2.70;99.40;;;;;;5007927;28;20190;-60
2021/01/20 00:53:57;;;;;;;21.13;9.67;;;-2.80;99.20;;;;;;4995902;28;20193;-61
2021/01/20 00:56:22;;;;;;;24.00;11.07;;;-2.90;99.90;;;;;;5011620;28;20193;-60
2021/01/20 00:58:48;;;;;;;16.47;9.80;;;-3.00;99.90;;;;;;5013981;28;20185;-60
2021/01/20 01:01:13;;;;;;;18.60;9.73;;;-3.00;99.90;;;;;;5012936;28;20554;-61
2021/01/20 01:03:39;;;;;;;15.30;9.40;;;-3.00;99.90;;;;;;5010899;28;20672;-60
2021/01/20 01:06:05;;;;;;;17.23;8.80;;;-3.00;99.90;;;;;;5013880;28;20735;-59
2021/01/20 01:08:31;;;;;;;15.03;8.50;;;-3.00;99.90;;;;;;5011568;28;20225;-60
2021/01/20 01:10:58;;;;;;;14.20;8.83;;;-3.00;99.90;;;;;;5002151;28;20226;-60
2021/01/20 01:13:24;;;;;;;16.50;9.23;;;-3.00;99.90;;;;;;4994358;28;20869;-61
2021/01/20 01:15:50;;;;;;;18.93;8.70;;;-3.00;99.90;;;;;;4996884;28;20501;-59
2021/01/20 01:18:15;;;;;;;16.87;8.80;;;-3.00;99.90;;;;;;5005558;28;20452;-60
2021/01/20 01:20:41;;;;;;;16.63;8.77;;;-3.00;99.90;;;;;;5011287;28;20560;-60
2021/01/20 01:23:07;;;;;;;12.87;7.60;;;-3.00;99.90;;;;;;5012875;28;20201;-60
2021/01/20 01:25:32;;;;;;;11.13;7.50;;;-3.00;99.90;;;;;;5013215;28;20548;-61
2021/01/20 01:27:59;;;;;;;14.30;7.73;;;-3.00;99.90;;;;;;5002225;28;20193;-60
2021/01/20 01:30:24;;;;;;;12.33;7.27;;;-3.00;99.90;;;;;;4992966;28;20170;-60
2021/01/20 01:32:50;;;;;;;14.87;7.17;;;-3.00;99.90;;;;;;4993563;28;20539;-60
2021/01/20 01:35:16;;;;;;;13.80;7.07;;;-2.90;99.90;;;;;;5010082;28;20200;-60
2021/01/20 01:37:41;;;;;;;13.57;6.70;;;-2.90;99.90;;;;;;5012497;28;20675;-60
2021/01/20 01:40:08;;;;;;;10.47;6.70;;;-2.80;99.90;;;;;;5012770;28;20176;-60
2021/01/20 01:42:34;;;;;;;8.80;6.17;;;-2.80;99.90;;;;;;5009353;28;20280;-60
2021/01/20 01:45:01;;;;;;;13.87;7.20;;;-2.80;99.90;;;;;;4995833;28;20812;-60
2021/01/20 01:47:29;;;;;;;11.23;6.93;;;-2.80;99.90;;;;;;5008006;28;20202;-61
2021/01/20 01:49:56;;;;;;;9.80;6.20;;;-2.80;99.90;;;;;;5010898;28;20497;-60
2021/01/20 01:52:23;;;;;;;16.20;7.40;;;-2.80;99.90;;;;;;5005067;28;21002;-60
2021/01/20 01:54:52;;;;;;;13.53;6.80;;;-2.90;99.90;;;;;;5012933;28;20847;-61
2021/01/20 01:57:17;;;;;;;16.03;8.00;;;-2.90;99.90;;;;;;5012283;28;20468;-61
2021/01/20 01:59:43;;;;;;;13.13;7.33;;;-3.00;99.90;;;;;;5012350;28;20458;-60
2021/01/20 02:02:10;;;;;;;13.30;7.37;;;-3.00;99.90;;;;;;5005279;28;20250;-61
2021/01/20 02:04:39;;;;;;;15.10;7.80;;;-3.00;99.90;;;;;;5009828;28;20958;-60
2021/01/20 02:07:05;;;;;;;14.40;7.17;;;-3.00;99.90;;;;;;5012079;28;20452;-60
2021/01/20 02:09:30;;;;;;;11.73;6.27;;;-3.00;99.90;;;;;;5005838;28;20505;-60
2021/01/20 02:12:15;;;;;;;10.53;6.23;;;-3.00;99.90;;;;;;5008662;28;20576;-59
2021/01/20 02:15:23;;;;;;;11.70;6.00;;;-3.00;99.90;;;;;;5012789;28;20417;-58
2021/01/20 02:18:02;;;;;;;11.30;7.40;;;-3.00;99.90;;;;;;4969528;28;20827;-60
2021/01/20 02:20:33;;;;;;;11.30;6.87;;;-3.00;99.90;;;;;;5009407;28;20730;-60
2021/01/20 02:23:04;;;;;;;12.43;7.00;;;-3.10;99.90;;;;;;5011274;28;20872;-61
2021/01/20 02:25:33;;;;;;;13.77;7.43;;;-3.10;99.90;;;;;;5007747;28;20420;-60
2021/01/20 02:28:08;;;;;;;10.23;6.73;;;-3.20;99.90;;;;;;5006699;28;20436;-59
2021/01/20 02:30:36;;;;;;;11.20;7.47;;;-3.20;99.90;;;;;;5009715;28;20941;-60
2021/01/20 02:33:04;;;;;;;10.70;7.20;;;-3.20;99.90;;;;;;5011539;28;20456;-60
2021/01/20 02:35:31;;;;;;;17.27;7.87;;;-3.30;99.90;;;;;;5011435;28;20438;-61
2021/01/20 02:37:58;;;;;;;13.90;7.03;;;-3.30;99.90;;;;;;5012080;28;20426;-60
2021/01/20 02:40:24;;;;;;;12.27;6.80;;;-3.40;99.70;;;;;;5011564;28;20495;-60
2021/01/20 02:42:50;;;;;;;13.60;7.23;;;-3.40;99.80;;;;;;5008279;28;20512;-61
2021/01/20 02:45:16;;;;;;;13.80;7.50;;;-3.40;99.70;;;;;;5006446;28;20193;-60
2021/01/20 02:47:44;;;;;;;13.77;7.93;;;-3.40;99.60;;;;;;4997034;28;20591;-61
2021/01/20 02:50:10;;;;;;;11.37;7.20;;;-3.50;99.70;;;;;;5009979;28;20598;-61
2021/01/20 02:53:00;;;;;;;12.20;7.40;;;-3.50;99.90;;;;;;5006520;28;20464;-60
2021/01/20 02:55:29;;;;;;;11.53;6.90;;;-3.50;99.90;;;;;;4992345;28;21013;-61
2021/01/20 02:58:08;;;;;;;15.50;8.10;;;-3.40;99.90;;;;;;4990379;28;20433;-59
2021/01/20 03:00:37;;;;;;;15.97;8.07;;;-3.40;99.90;;;;;;4994506;28;20408;-61
2021/01/20 03:03:07;;;;;;;12.87;7.77;;;-3.40;99.90;;;;;;4995441;28;20516;-60
2021/01/20 03:05:34;;;;;;;15.83;8.10;;;-3.40;99.90;;;;;;5011494;28;20465;-60
2021/01/20 03:08:01;;;;;;;15.37;8.00;;;-3.30;99.90;;;;;;5009129;28;20472;-62
2021/01/20 03:10:27;;;;;;;16.30;7.47;;;-3.40;99.90;;;;;;4994736;28;20453;-61
2021/01/20 03:12:52;;;;;;;12.67;7.40;;;-3.40;99.90;;;;;;4989186;28;20976;-60
2021/01/20 03:15:21;;;;;;;8.97;5.83;;;-3.50;99.50;;;;;;4999139;28;20179;-62
2021/01/20 03:17:47;;;;;;;12.00;6.43;;;-3.60;99.10;;;;;;5001938;28;20583;-61
2021/01/20 03:20:13;;;;;;;11.67;6.40;;;-3.60;98.90;;;;;;5010377;28;20474;-61
2021/01/20 03:22:39;;;;;;;13.43;6.33;;;-3.70;99.10;;;;;;5007810;28;20412;-61
2021/01/20 03:25:05;;;;;;;26.03;6.90;;;-3.80;99.00;;;;;;5006509;28;20539;-60
2021/01/20 03:27:31;;;;;;;18.43;7.80;;;-3.90;99.00;;;;;;4995286;28;20548;-61
2021/01/20 03:29:57;;;;;;;16.97;7.90;;;-4.00;99.30;;;;;;4998923;28;20506;-60
2021/01/20 03:32:23;;;;;;;31.73;8.50;;;-4.10;99.90;;;;;;4989146;28;20240;-61
2021/01/20 03:34:48;;;;;;;15.23;8.07;;;-4.10;99.90;;;;;;5009653;28;20186;-60
2021/01/20 03:37:14;;;;;;;14.77;7.60;;;-4.10;99.90;;;;;;5001558;28;20457;-61
2021/01/20 03:39:40;;;;;;;16.23;8.47;;;-4.10;99.90;;;;;;4991678;28;20232;-60
2021/01/20 03:42:06;;;;;;;21.63;7.87;;;-4.10;99.90;;;;;;5011218;28;20176;-61
2021/01/20 03:44:33;;;;;;;16.87;8.20;;;-4.10;99.90;;;;;;5006574;28;20553;-60
2021/01/20 03:46:59;;;;;;;14.90;7.50;;;-4.10;99.90;;;;;;4993384;28;20425;-61
2021/01/20 03:49:25;;;;;;;16.80;8.40;;;-4.10;99.90;;;;;;4999085;28;20420;-60
2021/01/20 03:51:51;;;;;;;16.40;7.80;;;-4.10;99.90;;;;;;5004904;28;20260;-61
2021/01/20 03:54:16;;;;;;;15.70;7.28;;;-4.10;99.90;;;;;;5010417;28;20699;-60
2021/01/20 03:56:42;;;;;;;14.67;8.30;;;-4.20;99.90;;;;;;5006704;28;20178;-61
2021/01/20 03:59:08;;;;;;;14.70;7.40;;;-4.20;99.90;;;;;;5008495;28;20640;-62
2021/01/20 04:01:33;;;;;;;15.90;7.67;;;-4.20;99.80;;;;;;5003247;28;20181;-61
2021/01/20 04:03:59;;;;;;;13.93;7.33;;;-4.20;99.90;;;;;;5008660;28;20700;-60
2021/01/20 04:06:25;;;;;;;14.50;7.83;;;-4.20;99.90;;;;;;5009113;28;20190;-60
2021/01/20 04:08:51;;;;;;;14.80;7.60;;;-4.20;99.90;;;;;;5000671;28;20225;-61
2021/01/20 04:11:23;;;;;;;13.32;7.03;;;-4.10;99.90;;;;;;5009659;28;20216;-61
2021/01/20 04:14:07;;;;;;;22.60;8.57;;;-4.20;99.90;;;;;;4999731;28;20213;-61
2021/01/20 04:16:33;;;;;;;20.80;6.85;;;-4.20;99.60;;;;;;5004900;28;20181;-61
2021/01/20 04:18:58;;;;;;;12.27;6.75;;;-4.20;99.10;;;;;;4996062;28;20220;-60
2021/01/20 04:21:24;;;;;;;14.63;7.80;;;-4.20;98.70;;;;;;5000164;28;20639;-61
2021/01/20 04:23:50;;;;;;;15.50;7.73;;;-4.30;98.30;;;;;;5006943;28;20192;-62
2021/01/20 04:26:15;;;;;;;20.73;8.23;;;-4.40;98.00;;;;;;5009561;28;20240;-60
2021/01/20 04:28:41;;;;;;;22.43;8.47;;;-4.50;97.90;;;;;;4991581;28;20636;-61
2021/01/20 04:31:06;;;;;;;16.50;9.43;;;-4.60;98.10;;;;;;5005218;28;20192;-60
2021/01/20 04:33:32;;;;;;;22.40;9.23;;;-4.60;98.50;;;;;;5012096;28;20686;-62
2021/01/20 04:35:58;;;;;;;26.40;8.80;;;-4.70;98.50;;;;;;5010618;28;20192;-62
2021/01/20 04:38:24;;;;;;;15.43;8.10;;;-4.80;98.90;;;;;;4994227;28;20210;-61
2021/01/20 04:40:55;;;;;;;15.13;7.53;;;-4.80;99.10;;;;;;5010935;28;20182;-60
2021/01/20 04:43:22;;;;;;;15.00;8.52;;;-4.80;99.60;;;;;;5007348;28;20189;-61
2021/01/20 04:45:49;;;;;;;16.97;8.33;;;-4.80;99.90;;;;;;5012453;28;20189;-61
2021/01/20 04:48:16;;;;;;;14.80;7.47;;;-4.80;99.90;;;;;;4994455;28;20448;-62
2021/01/20 04:50:43;;;;;;;14.18;7.85;;;-4.70;99.90;;;;;;5008159;28;20687;-60
2021/01/20 04:53:13;;;;;;;17.88;7.65;;;-4.60;99.90;;;;;;5008528;28;20200;-61
2021/01/20 04:55:41;;;;;;;15.73;8.20;;;-4.60;99.90;;;;;;5010920;28;20192;-61
2021/01/20 04:58:12;;;;;;;19.25;7.57;;;-4.60;99.90;;;;;;5013642;28;20220;-61
2021/01/20 05:00:39;;;;;;;16.88;7.03;;;-4.50;99.90;;;;;;5009570;28;20259;-61
2021/01/20 05:03:09;;;;;;;13.50;7.30;;;-4.50;99.90;;;;;;5004256;28;20544;-61
2021/01/20 05:05:36;;;;;;;19.17;7.95;;;-4.50;99.90;;;;;;5011590;28;20176;-61
2021/01/20 05:08:03;;;;;;;16.30;7.43;;;-4.40;99.90;;;;;;5013289;28;20204;-61
2021/01/20 05:10:29;;;;;;;15.68;7.40;;;-4.30;99.90;;;;;;5007629;28;20247;-61
2021/01/20 05:12:55;;;;;;;16.13;7.90;;;-4.30;99.90;;;;;;5010444;28;20205;-63
2021/01/20 05:15:31;;;;;;;14.37;7.60;;;-4.30;99.90;;;;;;5013329;28;20404;-61
2021/01/20 05:18:02;;;;;;;16.30;8.05;;;-4.30;99.90;;;;;;5009770;28;20448;-61
2021/01/20 05:20:37;;;;;;;17.48;7.93;;;-4.30;99.90;;;;;;5011213;28;20296;-65
2021/01/20 05:23:07;;;;;;;20.80;8.77;;;-4.30;99.90;;;;;;5007571;28;20182;-61
2021/01/20 05:25:59;;;;;;;19.95;7.50;;;-4.40;99.90;;;;;;5011973;28;20181;-62
2021/01/20 05:28:27;;;;;;;20.50;8.50;;;-4.40;99.90;;;;;;5002712;28;20580;-62
2021/01/20 05:30:54;;;;;;;14.55;7.80;;;-4.30;99.90;;;;;;5012903;28;20424;-61
2021/01/20 05:33:23;;;;;;;21.55;7.25;;;-4.30;99.90;;;;;;5009364;28;20201;-61
2021/01/20 05:36:09;;;;;;;14.23;8.25;;;-4.20;99.90;;;;;;5008898;28;20213;-61
2021/01/20 05:38:40;;;;;;;19.48;9.32;;;-4.20;99.90;;;;;;5009383;28;20216;-61
2021/01/20 05:41:25;;;;;;;14.80;8.27;;;-4.20;99.90;;;;;;5012269;28;20170;-61
2021/01/20 05:44:12;;;;;;;14.73;7.20;;;-4.20;99.90;;;;;;4998331;28;20655;-61
2021/01/20 05:46:40;;;;;;;14.83;7.53;;;-4.20;99.90;;;;;;5006873;28;20419;-60
2021/01/20 05:49:07;;;;;;;12.40;7.32;;;-4.20;99.90;;;;;;4997911;28;20784;-61
2021/01/20 05:51:41;;;;;;;11.40;7.05;;;-4.20;99.90;;;;;;5001646;28;20232;-60
2021/01/20 05:54:10;;;;;;;11.88;7.05;;;-4.20;99.90;;;;;;4996105;28;20245;-61
2021/01/20 05:56:38;;;;;;;15.25;7.90;;;-4.20;99.90;;;;;;4999839;28;20217;-60
2021/01/20 05:59:11;;;;;;;17.05;7.93;;;-4.20;99.90;;;;;;5004117;28;20529;-61
2021/01/20 06:01:40;;;;;;;15.37;8.40;;;-4.20;99.90;;;;;;5003694;28;20212;-59
2021/01/20 06:04:06;;;;;;;15.40;8.07;;;-4.10;99.90;;;;;;5003734;28;20532;-60
2021/01/20 06:06:33;;;;;;;14.10;7.47;;;-4.10;99.90;;;;;;5005371;28;20463;-59
2021/01/20 06:09:01;;;;;;;14.48;8.35;;;-4.10;99.90;;;;;;5002696;28;20469;-59
2021/01/20 06:11:26;;;;;;;12.83;7.43;;;-4.20;99.90;;;;;;5001401;28;20203;-59
2021/01/20 06:13:53;;;;;;;11.80;7.83;;;-4.10;99.90;;;;;;5004747;28;20476;-60
2021/01/20 06:16:25;;;;;;;12.05;6.85;;;-4.10;99.90;;;;;;5000335;28;20193;-60
2021/01/20 06:19:12;;;;;;;11.47;7.13;;;-4.10;99.90;;;;;;4997646;28;20698;-60
2021/01/20 06:21:40;;;;;;;14.30;7.00;;;-4.00;99.90;;;;;;5000905;28;20416;-61
2021/01/20 06:24:14;;;;;;;9.82;6.82;;;-3.90;99.90;;;;;;5001053;28;20829;-61
2021/01/20 06:26:59;;;;;;;17.13;7.90;;;-3.90;99.90;;;;;;5000149;28;20747;-59
2021/01/20 06:29:28;;;;;;;13.17;7.33;;;-3.80;99.90;;;;;;5007885;28;20516;-60
2021/01/20 06:31:55;;;;;;;18.90;7.83;;;-3.80;99.90;;;;;;4996643;28;20981;-64
2021/01/20 06:34:24;;;;;;;19.02;8.77;;;-3.80;99.90;;;;;;4991582;28;20602;-60
2021/01/20 06:36:50;;;;;;;18.48;9.20;;;-3.70;99.90;;;;;;4993867;28;20178;-61
2021/01/20 06:39:31;;;;;;;22.77;11.33;;;-3.70;99.90;;;;;;4995640;28;20186;-61
2021/01/20 06:41:59;;;;;;;23.37;10.83;;;-3.70;99.90;;;;;;4996137;28;20220;-61
2021/01/20 06:44:24;;;;;;;24.03;10.13;;;-3.70;99.90;;;;;;4997208;28;20441;-60
2021/01/20 06:46:56;;;;;;;19.07;9.53;;;-3.70;99.90;;;;;;4996338;28;20435;-61
2021/01/20 06:49:23;;;;;;;19.27;8.73;;;-3.70;99.90;;;;;;4997808;28;20216;-62
2021/01/20 06:52:10;;;;;;;19.38;9.65;;;-3.80;99.90;;;;;;4994167;28;20447;-61
2021/01/20 06:54:41;;;;;;;22.40;8.32;;;-3.80;99.90;;;;;;4999214;28;20184;-62
2021/01/20 06:57:29;;;;;;;16.40;8.80;;;-3.70;99.90;;;;;;5000290;28;20223;-62
2021/01/20 07:00:17;;;;;;;15.77;8.70;;;-3.70;99.90;;;;;;4999356;28;20447;-62
2021/01/20 07:03:00;;;;;;;19.07;9.00;;;-3.70;99.90;;;;;;5004673;28;20437;-61
2021/01/20 07:05:44;;;;;;;20.60;9.40;;;-3.70;99.90;;;;;;4994385;28;20988;-62
2021/01/20 07:08:10;;;;;;;19.57;9.07;;;-3.70;99.90;;;;;;5002584;28;20574;-61
2021/01/20 07:10:57;;;;;;;17.87;8.63;;;-3.70;99.90;;;;;;4996763;28;20424;-61
2021/01/20 07:13:34;;;;;;;16.25;9.65;;;-3.70;99.90;;;;;;4997751;28;20454;-63
2021/01/20 07:16:01;;;;;;;24.03;9.00;;;-3.70;99.90;;;;;;4992751;28;20201;-62
2021/01/20 07:18:27;;;;;;;17.95;7.85;;;-3.70;99.90;;;;;;4999414;28;20451;-61
2021/01/20 07:20:54;;;;;;;18.37;10.40;;;-3.60;99.90;;;;;;4999430;28;20512;-65
2021/01/20 07:23:22;;;;;;;23.47;11.40;;;-3.60;99.90;;;;;;4987945;28;20388;-62
2021/01/20 07:25:50;;;;;;;24.17;11.10;;;-3.60;99.90;;;;;;5001967;28;21186;-62
2021/01/20 07:28:16;;;;;;;21.63;9.80;;;-3.60;99.90;;;;;;4995764;28;20477;-62
2021/01/20 07:30:42;;;;;;;23.02;10.75;;;-3.50;99.90;;;;;;4997774;28;20486;-62
2021/01/20 07:33:17;;;;;;;22.37;10.73;;;-3.50;99.90;;;;;;4996251;28;20229;-63
2021/01/20 07:35:43;;;;;;;21.07;9.40;;;-3.50;99.90;;;;;;4992559;28;20178;-62
2021/01/20 07:38:09;;;;;;;16.23;8.37;;;-3.50;99.90;;;;;;4998650;28;20446;-59
2021/01/20 07:40:38;;;;;;;19.83;9.03;;;-3.40;99.90;;;;;;4999792;28;20570;-61
2021/01/20 07:43:04;;;;;;;18.87;10.00;;;-3.40;99.90;;;;;;4999633;28;20441;-61
2021/01/20 07:45:41;;;;;;;24.80;9.23;;;-3.40;99.90;;;;;;5002132;28;20980;-61
2021/01/20 07:48:08;;;;;;;23.67;10.50;;;-3.40;99.90;;;;;;4996457;28;20456;-61
2021/01/20 07:50:39;;;;;;;24.60;10.70;;;-3.30;99.90;;;;;;5002083;28;20464;-62
2021/01/20 07:53:05;;;;;;;22.63;10.77;;;-3.30;99.90;;;;;;4998655;28;20464;-62
2021/01/20 07:55:54;;;;;;;18.57;10.97;;;-3.30;99.90;;;;;;4993105;28;20429;-61
2021/01/20 07:58:29;;;;;;;19.00;10.20;;;-3.30;99.90;;;;;;4999387;28;20483;-61
2021/01/20 08:00:56;;;;;;;22.30;11.20;;;-3.20;99.90;;;;;;4996158;28;20440;-62
2021/01/20 08:03:35;;;;;;;18.93;10.60;;;-3.20;99.90;;;;;;5002905;28;20428;-62
2021/01/20 08:06:06;;;;;;;21.57;10.57;;;-3.10;99.90;;;;;;5002222;28;20474;-61
2021/01/20 08:08:32;;;;;;;20.90;10.63;;;-3.10;99.90;;;;;;5004805;28;20456;-62
2021/01/20 08:11:01;;;;;;;21.30;10.77;;;-3.10;99.90;;;;;;5001150;28;20439;-61
2021/01/20 08:13:29;;;;;;;20.33;9.53;;;-3.10;99.90;;;;;;4999643;28;20460;-62
2021/01/20 08:15:58;;;;;;;18.83;10.13;;;-3.00;99.90;;;;;;5003195;28;20906;-63
2021/01/20 08:18:24;;;;;;;19.67;9.30;;;-3.00;99.90;;;;;;5000167;28;20445;-62
2021/01/20 08:20:50;;;;;;;22.63;10.03;;;-3.00;99.90;;;;;;4997430;28;20438;-62
2021/01/20 08:23:39;;;;;;;15.50;9.20;;;-3.00;99.90;;;;;;5005703;28;20933;-62
2021/01/20 08:26:06;;;;;;;24.63;12.00;;;-2.90;99.90;;;;;;5000741;28;20445;-62
2021/01/20 08:28:32;;;;;;;34.47;16.93;;;-2.90;99.90;;;;;;4994453;28;20458;-62
2021/01/20 08:30:58;;;;;;;27.93;14.40;;;-2.90;99.80;;;;;;4998448;28;20433;-62
2021/01/20 08:33:24;;;;;;;24.90;11.97;;;-2.90;99.90;;;;;;5002074;28;20471;-62
2021/01/20 08:35:57;;;;;;;21.13;11.70;;;-2.80;99.90;;;;;;4993781;28;20192;-62
2021/01/20 08:38:27;;;;;;;31.63;13.20;;;-2.80;99.90;;;;;;5000232;28;20210;-62
2021/01/20 08:41:09;;;;;;;31.97;14.70;;;-2.70;99.90;;;;;;4996261;28;20433;-62
2021/01/20 08:43:35;;;;;;;31.73;16.27;;;-2.70;99.90;;;;;;4995280;28;20443;-62
2021/01/20 08:46:27;;;;;;;39.67;20.10;;;-2.60;99.90;;;;;;5000248;28;20452;-61
2021/01/20 08:48:57;;;;;;;40.77;20.47;;;-2.60;99.90;;;;;;5009650;28;20194;-62
2021/01/20 08:51:24;;;;;;;48.23;20.00;;;-2.50;99.90;;;;;;5011357;28;20455;-62
2021/01/20 08:53:50;;;;;;;40.03;18.13;;;-2.50;99.70;;;;;;5019407;28;21016;-62
2021/01/20 08:56:29;;;;;;;32.27;15.77;;;-2.50;99.80;;;;;;5019793;28;20508;-62
2021/01/20 08:58:55;;;;;;;30.63;15.67;;;-2.40;99.90;;;;;;5019458;28;20456;-62
2021/01/20 09:01:28;;;;;;;27.77;13.40;;;-2.30;99.90;;;;;;5017246;28;20435;-62
2021/01/20 09:03:58;;;;;;;24.50;12.77;;;-2.30;99.90;;;;;;5019662;28;20459;-62
2021/01/20 09:06:26;;;;;;;23.23;12.20;;;-2.20;99.90;;;;;;5013215;28;20456;-62
2021/01/20 09:08:53;;;;;;;20.70;11.40;;;-2.10;99.90;;;;;;5010574;28;20478;-62
2021/01/20 09:11:19;;;;;;;31.70;12.40;;;-2.10;99.90;;;;;;5016027;28;20434;-62
2021/01/20 09:13:46;;;;;;;22.87;13.23;;;-2.00;99.90;;;;;;5011839;28;20464;-63
2021/01/20 09:16:12;;;;;;;22.47;12.00;;;-1.90;99.90;;;;;;5019251;28;20441;-62
2021/01/20 09:18:37;;;;;;;22.17;12.10;;;-1.80;99.80;;;;;;5022697;28;20541;-62
2021/01/20 09:21:04;;;;;;;22.60;12.10;;;-1.80;99.80;;;;;;5017205;28;20456;-62
2021/01/20 09:23:31;;;;;;;16.27;10.10;;;-1.70;99.80;;;;;;5015475;28;20224;-61
2021/01/20 09:25:57;;;;;;;26.60;12.40;;;-1.60;99.70;;;;;;5014016;28;20452;-61
2021/01/20 09:28:25;;;;;;;24.10;12.60;;;-1.60;99.60;;;;;;5019182;28;20917;-62
2021/01/20 09:30:52;;;;;;;29.87;13.43;;;-1.50;99.60;;;;;;5016210;28;20459;-61
2021/01/20 09:33:21;;;;;;;29.07;13.93;;;-1.50;99.60;;;;;;5017067;28;20469;-61
2021/01/20 09:35:46;;;;;;;26.80;14.03;;;-1.50;99.40;;;;;;5021663;28;20212;-61
2021/01/20 09:38:17;;;;;;;27.03;14.10;;;-1.50;99.60;;;;;;5018839;28;20489;-63
2021/01/20 09:40:46;;;;;;;27.63;12.47;;;-1.40;99.50;;;;;;5001587;28;20194;-61
2021/01/20 09:43:13;;;;;;;34.00;14.17;;;-1.30;99.50;;;;;;5021332;28;20432;-61
2021/01/20 09:45:39;;;;;;;26.43;14.93;;;-1.30;99.30;;;;;;5018979;28;20436;-61
2021/01/20 09:48:06;;;;;;;24.77;13.97;;;-1.20;99.20;;;;;;5022414;28;20507;-61
2021/01/20 09:50:34;;;;;;;31.00;14.40;;;-1.20;99.30;;;;;;5023092;28;20186;-61
2021/01/20 09:53:01;;;;;;;27.93;13.83;;;-1.10;99.40;;;;;;5016946;28;20459;-65
2021/01/20 09:55:27;;;;;;;33.23;16.43;;;-1.00;99.30;;;;;;5016823;28;20441;-61
2021/01/20 09:57:53;;;;;;;29.73;16.10;;;-1.00;99.20;;;;;;5009344;28;20462;-61
2021/01/20 10:00:19;;;;;;;41.40;18.07;;;-0.90;99.10;;;;;;5012037;28;20179;-61
2021/01/20 10:02:44;;;;;;;36.23;18.10;;;-0.90;98.50;;;;;;5014281;28;20434;-61
2021/01/20 10:05:11;;;;;;;33.77;18.57;;;-0.80;98.50;;;;;;5013438;28;21152;-61
2021/01/20 10:07:38;;;;;;;33.63;16.47;;;-0.80;98.30;;;;;;5013471;28;20225;-61
2021/01/20 10:10:10;;;;;;;35.73;18.00;;;-0.70;98.20;;;;;;5020676;28;20437;-61
2021/01/20 10:12:36;;;;;;;27.63;15.40;;;-0.70;98.00;;;;;;5007821;28;20437;-60
2021/01/20 10:15:08;;;;;;;40.10;18.33;;;-0.60;98.40;;;;;;4998654;28;20444;-60
2021/01/20 10:17:33;;;;;;;34.70;17.90;;;-0.50;98.20;;;;;;5006188;28;20444;-61
2021/01/20 10:19:59;;;;;;;34.97;18.67;;;-0.40;98.50;;;;;;4994175;28;20454;-61
2021/01/20 10:22:25;;;;;;;46.43;21.77;;;-0.30;98.30;;;;;;4997066;28;20435;-61
2021/01/20 10:24:51;;;;;;;38.80;19.30;;;-0.30;98.00;;;;;;4978470;28;20436;-61
2021/01/20 10:27:17;;;;;;;28.50;16.97;;;-0.30;97.70;;;;;;4994709;28;20300;-61
2021/01/20 10:29:43;;;;;;;31.13;16.30;;;-0.20;97.80;;;;;;5003060;28;20183;-60
2021/01/20 10:32:09;;;;;;;36.00;17.60;;;-0.20;97.80;;;;;;4992280;28;20193;-61
2021/01/20 10:34:35;;;;;;;39.03;17.87;;;-0.10;97.80;;;;;;4994267;28;20205;-61
2021/01/20 10:37:01;;;;;;;32.43;17.23;;;-0.10;97.60;;;;;;4996004;28;20838;-60
2021/01/20 10:39:27;;;;;;;32.73;17.70;;;0.00;98.20;;;;;;5005296;28;20876;-59
2021/01/20 10:41:53;;;;;;;31.67;17.20;;;0.10;98.50;;;;;;4997240;28;20190;-61
2021/01/20 10:44:19;;;;;;;32.10;16.93;;;0.30;98.60;;;;;;4987977;28;20434;-61
2021/01/20 10:46:45;;;;;;;33.23;16.63;;;0.50;98.20;;;;;;4990436;28;20641;-62
2021/01/20 10:49:11;;;;;;;29.17;17.00;;;0.60;98.00;;;;;;4986750;28;20436;-61
2021/01/20 10:51:36;;;;;;;32.67;16.00;;;0.80;98.00;;;;;;4983206;28;20456;-62
2021/01/20 10:54:04;;;;;;;27.57;14.20;;;0.90;97.60;;;;;;4993929;28;20195;-62
2021/01/20 10:56:30;;;;;;;31.20;14.57;;;1.10;97.50;;;;;;4994358;28;20240;-62
2021/01/20 10:58:56;;;;;;;29.77;14.40;;;1.20;97.40;;;;;;5002148;28;20837;-62
2021/01/20 11:01:22;;;;;;;35.07;19.10;;;1.30;97.10;;;;;;5000022;28;20467;-61
2021/01/20 11:03:48;;;;;;;26.80;15.47;;;1.40;96.80;;;;;;4999407;28;20449;-61
2021/01/20 11:06:14;;;;;;;25.53;13.47;;;1.40;96.30;;;;;;4990551;28;20214;-61
2021/01/20 11:08:40;;;;;;;27.83;14.33;;;1.50;96.00;;;;;;4993525;28;20589;-61
2021/01/20 11:11:06;;;;;;;22.23;12.43;;;1.50;96.00;;;;;;5001470;28;20305;-61
2021/01/20 11:13:35;;;;;;;20.57;12.23;;;1.60;95.70;;;;;;4997271;28;20460;-63
2021/01/20 11:16:02;;;;;;;27.03;12.90;;;1.70;95.80;;;;;;4999055;28;20484;-60
2021/01/20 11:18:31;;;;;;;24.33;13.40;;;1.80;96.10;;;;;;4982025;28;20543;-60
2021/01/20 11:20:58;;;;;;;20.73;11.13;;;1.90;96.20;;;;;;4999916;28;20537;-60
2021/01/20 11:23:27;;;;;;;21.33;11.90;;;2.10;96.00;;;;;;4993606;28;20902;-61
2021/01/20 11:25:53;;;;;;;22.87;12.17;;;2.20;95.80;;;;;;5000515;28;20438;-60
2021/01/20 11:28:19;;;;;;;23.07;12.80;;;2.30;96.10;;;;;;4993809;28;20500;-60
2021/01/20 11:30:45;;;;;;;18.40;12.03;;;2.50;96.00;;;;;;4994287;28;20444;-61
2021/01/20 11:33:11;;;;;;;23.07;11.57;;;2.60;95.60;;;;;;4993167;28;20468;-61
2021/01/20 11:35:37;;;;;;;25.63;11.70;;;2.80;95.50;;;;;;4999489;28;20191;-62
2021/01/20 11:38:05;;;;;;;20.10;11.03;;;2.90;95.70;;;;;;4991402;28;20449;-61
2021/01/20 11:40:32;;;;;;;20.03;11.60;;;3.00;95.50;;;;;;4995638;28;20462;-61
2021/01/20 11:42:58;;;;;;;19.50;10.80;;;3.10;95.30;;;;;;4995343;28;20434;-60
2021/01/20 11:45:31;;;;;;;19.90;11.87;;;3.10;95.20;;;;;;5000418;28;20440;-61
2021/01/20 11:47:57;;;;;;;20.07;11.70;;;3.30;95.20;;;;;;5001543;28;20470;-61
2021/01/20 11:50:24;;;;;;;18.47;11.53;;;3.40;95.20;;;;;;4998022;28;20465;-62
2021/01/20 11:52:53;;;;;;;17.67;11.80;;;3.50;95.00;;;;;;4992385;28;21523;-63
2021/01/20 11:55:20;;;;;;;14.00;9.60;;;3.60;94.50;;;;;;5003941;28;21099;-60
2021/01/20 11:57:49;;;;;;;20.17;11.80;;;3.60;93.70;;;;;;4994410;28;20444;-62
2021/01/20 12:00:17;;;;;;;19.00;12.20;;;3.60;93.80;;;;;;4998987;28;20443;-60
2021/01/20 12:02:43;;;;;;;19.00;11.07;;;3.70;93.80;;;;;;4996972;28;20427;-60
2021/01/20 12:05:11;;;;;;;21.70;10.80;;;3.70;93.80;;;;;;4998686;28;20428;-60
2021/01/20 12:07:37;;;;;;;16.23;9.60;;;3.70;93.70;;;;;;4986230;28;20525;-62
2021/01/20 12:10:04;;;;;;;14.40;8.50;;;3.80;93.90;;;;;;4993679;28;20439;-60
2021/01/20 12:12:30;;;;;;;13.60;7.90;;;3.90;93.80;;;;;;4998353;28;20430;-60
2021/01/20 12:14:56;;;;;;;10.70;6.87;;;4.00;93.50;;;;;;5008757;28;20523;-61
2021/01/20 12:17:21;;;;;;;8.50;6.33;;;4.00;93.30;;;;;;5000443;28;20262;-63
2021/01/20 12:19:47;;;;;;;14.43;6.53;;;4.10;93.00;;;;;;4992267;28;20225;-62
2021/01/20 12:22:13;;;;;;;12.23;6.70;;;4.10;92.40;;;;;;4993528;28;20757;-63
2021/01/20 12:24:39;;;;;;;12.03;6.20;;;4.10;92.60;;;;;;4974443;28;20453;-61
2021/01/20 12:27:05;;;;;;;8.30;6.00;;;4.10;92.70;;;;;;4991707;28;20239;-63
2021/01/20 12:29:33;;;;;;;10.13;6.20;;;4.20;92.80;;;;;;4988676;28;20208;-63
2021/01/20 12:31:59;;;;;;;10.53;5.50;;;4.20;93.00;;;;;;4994336;28;20197;-64
2021/01/20 12:34:24;;;;;;;11.07;4.57;;;4.20;93.20;;;;;;5001075;28;20481;-65
2021/01/20 12:36:50;;;;;;;5.43;4.57;;;4.20;93.30;;;;;;4991814;28;20178;-63
2021/01/20 12:39:16;;;;;;;7.77;4.20;;;4.20;93.60;;;;;;4990166;28;20180;-63
2021/01/20 12:41:42;;;;;;;6.60;3.87;;;4.20;93.60;;;;;;4990658;28;20590;-62